sensor_id;sensor_type;location;lat;lon;timestamp;P1;durP1;ratioP1;P2;durP2;ratioP2
23868;SDS011;12115;47.128;15.422;2022-12-29T00:02:23;8.05;;;4.72;;
23868;SDS011;12115;47.128;15.422;2022-12-29T00:04:54;7.28;;;5.00;;
23868;SDS011;12115;47.128;15.422;2022-12-29T00:07:21;6.93;;;4.55;;
23868;SDS011;12115;47.128;15.422;2022-12-29T00:09:50;7.35;;;4.47;;
23868;SDS011;12115;47.128;15.422;2022-12-29T00:12:20;8.68;;;5.20;;
23868;SDS011;12115;47.128;15.422;2022-12-29T00:14:51;7.70;;;4.25;;
23868;SDS011;12115;47.128;15.422;2022-12-29T00:17:42;8.10;;;5.22;;
23868;SDS011;12115;47.128;15.422;2022-12-29T00:20:17;6.10;;;4.22;;
23868;SDS011;12115;47.128;15.422;2022-12-29T00:23:07;7.82;;;4.75;;
23868;SDS011;12115;47.128;15.422;2022-12-29T00:25:58;7.15;;;4.28;;
23868;SDS011;12115;47.128;15.422;2022-12-29T00:28:59;6.10;;;4.30;;
23868;SDS011;12115;47.128;15.422;2022-12-29T00:31:45;6.70;;;4.47;;
23868;SDS011;12115;47.128;15.422;2022-12-29T00:34:31;8.52;;;4.65;;
23868;SDS011;12115;47.128;15.422;2022-12-29T00:37:17;8.18;;;4.40;;
23868;SDS011;12115;47.128;15.422;2022-12-29T00:40:05;6.85;;;4.57;;
23868;SDS011;12115;47.128;15.422;2022-12-29T00:43:05;8.30;;;4.55;;
23868;SDS011;12115;47.128;15.422;2022-12-29T00:45:51;7.70;;;4.80;;
23868;SDS011;12115;47.128;15.422;2022-12-29T00:48:18;7.90;;;3.92;;
23868;SDS011;12115;47.128;15.422;2022-12-29T00:51:07;9.93;;;4.88;;
23868;SDS011;12115;47.128;15.422;2022-12-29T00:53:35;9.20;;;5.22;;
23868;SDS011;12115;47.128;15.422;2022-12-29T00:56:03;8.70;;;4.45;;
23868;SDS011;12115;47.128;15.422;2022-12-29T00:58:35;8.93;;;4.30;;
23868;SDS011;12115;47.128;15.422;2022-12-29T01:01:05;6.13;;;4.05;;
23868;SDS011;12115;47.128;15.422;2022-12-29T01:03:35;7.85;;;4.60;;
23868;SDS011;12115;47.128;15.422;2022-12-29T01:06:07;8.85;;;4.43;;
23868;SDS011;12115;47.128;15.422;2022-12-29T01:08:37;9.90;;;4.22;;
23868;SDS011;12115;47.128;15.422;2022-12-29T01:11:08;8.02;;;4.28;;
23868;SDS011;12115;47.128;15.422;2022-12-29T01:13:45;6.93;;;4.20;;
23868;SDS011;12115;47.128;15.422;2022-12-29T01:16:16;9.25;;;5.70;;
23868;SDS011;12115;47.128;15.422;2022-12-29T01:18:43;9.35;;;4.50;;
23868;SDS011;12115;47.128;15.422;2022-12-29T01:21:11;6.95;;;4.03;;
23868;SDS011;12115;47.128;15.422;2022-12-29T01:23:39;7.70;;;4.38;;
23868;SDS011;12115;47.128;15.422;2022-12-29T01:26:10;8.43;;;5.75;;
23868;SDS011;12115;47.128;15.422;2022-12-29T01:28:42;6.97;;;4.25;;
23868;SDS011;12115;47.128;15.422;2022-12-29T01:31:10;6.45;;;4.43;;
23868;SDS011;12115;47.128;15.422;2022-12-29T01:33:39;6.63;;;4.53;;
23868;SDS011;12115;47.128;15.422;2022-12-29T01:36:10;5.25;;;4.03;;
23868;SDS011;12115;47.128;15.422;2022-12-29T01:38:42;7.28;;;4.10;;
23868;SDS011;12115;47.128;15.422;2022-12-29T01:41:13;7.88;;;3.85;;
23868;SDS011;12115;47.128;15.422;2022-12-29T01:49:10;6.63;;;4.13;;
23868;SDS011;12115;47.128;15.422;2022-12-29T01:51:40;8.52;;;4.45;;
23868;SDS011;12115;47.128;15.422;2022-12-29T01:54:20;7.00;;;4.20;;
23868;SDS011;12115;47.128;15.422;2022-12-29T01:56:49;6.90;;;3.75;;
23868;SDS011;12115;47.128;15.422;2022-12-29T01:59:20;5.77;;;3.80;;
23868;SDS011;12115;47.128;15.422;2022-12-29T02:01:52;7.20;;;3.72;;
23868;SDS011;12115;47.128;15.422;2022-12-29T02:04:19;7.70;;;4.10;;
23868;SDS011;12115;47.128;15.422;2022-12-29T02:06:54;6.53;;;3.85;;
23868;SDS011;12115;47.128;15.422;2022-12-29T02:09:26;7.05;;;4.00;;
23868;SDS011;12115;47.128;15.422;2022-12-29T02:11:53;5.82;;;3.80;;
23868;SDS011;12115;47.128;15.422;2022-12-29T02:14:21;9.43;;;4.40;;
23868;SDS011;12115;47.128;15.422;2022-12-29T02:28:23;6.85;;;4.20;;
23868;SDS011;12115;47.128;15.422;2022-12-29T02:37:05;7.47;;;3.53;;
23868;SDS011;12115;47.128;15.422;2022-12-29T02:39:40;5.32;;;3.58;;
23868;SDS011;12115;47.128;15.422;2022-12-29T02:42:55;9.05;;;4.20;;
23868;SDS011;12115;47.128;15.422;2022-12-29T02:45:30;11.95;;;4.93;;
23868;SDS011;12115;47.128;15.422;2022-12-29T02:48:15;5.05;;;3.40;;
23868;SDS011;12115;47.128;15.422;2022-12-29T02:53:19;7.38;;;4.15;;
23868;SDS011;12115;47.128;15.422;2022-12-29T02:56:08;8.48;;;3.97;;
23868;SDS011;12115;47.128;15.422;2022-12-29T02:58:35;7.70;;;4.18;;
23868;SDS011;12115;47.128;15.422;2022-12-29T03:01:07;7.45;;;3.90;;
23868;SDS011;12115;47.128;15.422;2022-12-29T03:11:56;6.25;;;4.40;;
23868;SDS011;12115;47.128;15.422;2022-12-29T03:20:19;6.57;;;4.22;;
23868;SDS011;12115;47.128;15.422;2022-12-29T03:22:55;8.30;;;3.70;;
23868;SDS011;12115;47.128;15.422;2022-12-29T03:25:30;7.10;;;4.05;;
23868;SDS011;12115;47.128;15.422;2022-12-29T03:28:14;7.25;;;4.50;;
23868;SDS011;12115;47.128;15.422;2022-12-29T03:30:48;9.20;;;4.60;;
23868;SDS011;12115;47.128;15.422;2022-12-29T03:33:21;7.10;;;4.13;;
23868;SDS011;12115;47.128;15.422;2022-12-29T03:35:54;6.20;;;3.92;;
23868;SDS011;12115;47.128;15.422;2022-12-29T03:38:37;7.93;;;4.22;;
23868;SDS011;12115;47.128;15.422;2022-12-29T03:41:15;6.03;;;4.00;;
23868;SDS011;12115;47.128;15.422;2022-12-29T03:43:47;6.32;;;3.63;;
23868;SDS011;12115;47.128;15.422;2022-12-29T03:46:14;5.10;;;3.50;;
23868;SDS011;12115;47.128;15.422;2022-12-29T03:48:42;9.77;;;3.90;;
23868;SDS011;12115;47.128;15.422;2022-12-29T03:51:09;5.40;;;3.80;;
23868;SDS011;12115;47.128;15.422;2022-12-29T03:53:36;5.30;;;3.17;;
23868;SDS011;12115;47.128;15.422;2022-12-29T03:56:04;7.15;;;3.88;;
23868;SDS011;12115;47.128;15.422;2022-12-29T03:58:32;6.53;;;3.97;;
23868;SDS011;12115;47.128;15.422;2022-12-29T04:01:22;9.45;;;4.70;;
23868;SDS011;12115;47.128;15.422;2022-12-29T04:04:03;6.38;;;4.07;;
23868;SDS011;12115;47.128;15.422;2022-12-29T04:06:38;7.53;;;4.50;;
23868;SDS011;12115;47.128;15.422;2022-12-29T04:09:19;9.35;;;4.93;;
23868;SDS011;12115;47.128;15.422;2022-12-29T04:14:41;8.48;;;4.70;;
23868;SDS011;12115;47.128;15.422;2022-12-29T04:20:04;5.75;;;3.63;;
23868;SDS011;12115;47.128;15.422;2022-12-29T04:22:59;7.15;;;3.67;;
23868;SDS011;12115;47.128;15.422;2022-12-29T04:25:56;5.65;;;3.40;;
23868;SDS011;12115;47.128;15.422;2022-12-29T04:28:31;6.05;;;3.40;;
23868;SDS011;12115;47.128;15.422;2022-12-29T04:31:39;5.57;;;3.60;;
23868;SDS011;12115;47.128;15.422;2022-12-29T04:34:20;7.15;;;3.95;;
23868;SDS011;12115;47.128;15.422;2022-12-29T04:36:55;6.25;;;3.67;;
23868;SDS011;12115;47.128;15.422;2022-12-29T04:39:41;5.82;;;3.38;;
23868;SDS011;12115;47.128;15.422;2022-12-29T04:42:16;8.77;;;4.75;;
23868;SDS011;12115;47.128;15.422;2022-12-29T04:44:50;4.85;;;3.28;;
23868;SDS011;12115;47.128;15.422;2022-12-29T04:47:59;7.50;;;3.13;;
23868;SDS011;12115;47.128;15.422;2022-12-29T04:50:48;7.20;;;4.35;;
23868;SDS011;12115;47.128;15.422;2022-12-29T04:53:24;8.40;;;3.70;;
23868;SDS011;12115;47.128;15.422;2022-12-29T04:55:54;5.40;;;3.00;;
23868;SDS011;12115;47.128;15.422;2022-12-29T04:58:30;5.00;;;3.50;;
23868;SDS011;12115;47.128;15.422;2022-12-29T05:01:01;5.72;;;2.97;;
23868;SDS011;12115;47.128;15.422;2022-12-29T05:03:39;4.88;;;4.00;;
23868;SDS011;12115;47.128;15.422;2022-12-29T05:06:10;5.28;;;3.40;;
23868;SDS011;12115;47.128;15.422;2022-12-29T05:08:38;7.20;;;3.78;;
23868;SDS011;12115;47.128;15.422;2022-12-29T05:11:13;6.60;;;3.92;;
23868;SDS011;12115;47.128;15.422;2022-12-29T05:13:45;7.05;;;4.38;;
23868;SDS011;12115;47.128;15.422;2022-12-29T05:16:15;6.25;;;3.78;;
23868;SDS011;12115;47.128;15.422;2022-12-29T05:18:44;11.80;;;3.05;;
23868;SDS011;12115;47.128;15.422;2022-12-29T05:21:18;6.25;;;3.78;;
23868;SDS011;12115;47.128;15.422;2022-12-29T05:23:49;5.97;;;3.80;;
23868;SDS011;12115;47.128;15.422;2022-12-29T05:26:21;5.65;;;3.25;;
23868;SDS011;12115;47.128;15.422;2022-12-29T05:29:01;5.70;;;3.17;;
23868;SDS011;12115;47.128;15.422;2022-12-29T05:31:34;7.50;;;3.40;;
23868;SDS011;12115;47.128;15.422;2022-12-29T05:34:04;6.03;;;4.05;;
23868;SDS011;12115;47.128;15.422;2022-12-29T05:36:35;5.93;;;3.63;;
23868;SDS011;12115;47.128;15.422;2022-12-29T05:39:12;5.45;;;3.72;;
23868;SDS011;12115;47.128;15.422;2022-12-29T05:42:09;6.03;;;3.65;;
23868;SDS011;12115;47.128;15.422;2022-12-29T05:44:50;6.80;;;3.03;;
23868;SDS011;12115;47.128;15.422;2022-12-29T05:47:44;7.68;;;4.70;;
23868;SDS011;12115;47.128;15.422;2022-12-29T05:50:47;5.25;;;3.72;;
23868;SDS011;12115;47.128;15.422;2022-12-29T05:53:32;8.93;;;4.28;;
23868;SDS011;12115;47.128;15.422;2022-12-29T05:56:14;6.28;;;3.83;;
23868;SDS011;12115;47.128;15.422;2022-12-29T05:58:54;7.55;;;4.38;;
23868;SDS011;12115;47.128;15.422;2022-12-29T06:04:03;7.00;;;4.15;;
23868;SDS011;12115;47.128;15.422;2022-12-29T06:06:31;5.38;;;3.17;;
23868;SDS011;12115;47.128;15.422;2022-12-29T06:08:58;6.22;;;3.55;;
23868;SDS011;12115;47.128;15.422;2022-12-29T06:11:26;8.10;;;4.50;;
23868;SDS011;12115;47.128;15.422;2022-12-29T06:13:56;10.82;;;5.38;;
23868;SDS011;12115;47.128;15.422;2022-12-29T06:16:24;8.45;;;4.60;;
23868;SDS011;12115;47.128;15.422;2022-12-29T06:18:54;10.70;;;5.53;;
23868;SDS011;12115;47.128;15.422;2022-12-29T06:21:22;12.65;;;6.60;;
23868;SDS011;12115;47.128;15.422;2022-12-29T06:23:49;12.02;;;6.22;;
23868;SDS011;12115;47.128;15.422;2022-12-29T06:26:16;10.15;;;5.93;;
23868;SDS011;12115;47.128;15.422;2022-12-29T06:28:46;9.30;;;5.45;;
23868;SDS011;12115;47.128;15.422;2022-12-29T06:31:15;9.65;;;5.35;;
23868;SDS011;12115;47.128;15.422;2022-12-29T06:33:42;8.82;;;5.35;;
23868;SDS011;12115;47.128;15.422;2022-12-29T06:36:15;10.10;;;5.32;;
23868;SDS011;12115;47.128;15.422;2022-12-29T06:38:42;9.38;;;5.05;;
23868;SDS011;12115;47.128;15.422;2022-12-29T06:41:11;7.13;;;4.65;;
23868;SDS011;12115;47.128;15.422;2022-12-29T06:44:13;9.18;;;5.03;;
23868;SDS011;12115;47.128;15.422;2022-12-29T06:46:54;10.18;;;6.18;;
23868;SDS011;12115;47.128;15.422;2022-12-29T06:49:21;11.60;;;6.43;;
23868;SDS011;12115;47.128;15.422;2022-12-29T06:51:48;12.95;;;6.20;;
23868;SDS011;12115;47.128;15.422;2022-12-29T06:54:15;11.73;;;5.32;;
23868;SDS011;12115;47.128;15.422;2022-12-29T06:56:43;8.43;;;4.88;;
23868;SDS011;12115;47.128;15.422;2022-12-29T06:59:10;9.13;;;4.97;;
23868;SDS011;12115;47.128;15.422;2022-12-29T07:01:37;8.32;;;4.30;;
23868;SDS011;12115;47.128;15.422;2022-12-29T07:04:05;13.77;;;5.05;;
23868;SDS011;12115;47.128;15.422;2022-12-29T07:06:32;12.02;;;5.45;;
23868;SDS011;12115;47.128;15.422;2022-12-29T07:08:59;11.77;;;5.07;;
23868;SDS011;12115;47.128;15.422;2022-12-29T07:11:27;6.90;;;4.43;;
23868;SDS011;12115;47.128;15.422;2022-12-29T07:13:54;8.30;;;4.82;;
23868;SDS011;12115;47.128;15.422;2022-12-29T07:16:22;7.85;;;4.18;;
23868;SDS011;12115;47.128;15.422;2022-12-29T07:18:50;8.60;;;4.68;;
23868;SDS011;12115;47.128;15.422;2022-12-29T07:21:18;6.32;;;3.92;;
23868;SDS011;12115;47.128;15.422;2022-12-29T07:23:45;6.30;;;4.20;;
23868;SDS011;12115;47.128;15.422;2022-12-29T07:26:13;6.57;;;4.25;;
23868;SDS011;12115;47.128;15.422;2022-12-29T07:28:44;8.48;;;4.40;;
23868;SDS011;12115;47.128;15.422;2022-12-29T07:31:15;8.77;;;4.80;;
23868;SDS011;12115;47.128;15.422;2022-12-29T07:33:47;7.20;;;4.50;;
23868;SDS011;12115;47.128;15.422;2022-12-29T07:36:16;6.88;;;3.72;;
23868;SDS011;12115;47.128;15.422;2022-12-29T07:38:44;5.03;;;3.20;;
23868;SDS011;12115;47.128;15.422;2022-12-29T07:41:11;7.55;;;4.07;;
23868;SDS011;12115;47.128;15.422;2022-12-29T07:43:38;6.63;;;3.75;;
23868;SDS011;12115;47.128;15.422;2022-12-29T07:46:32;7.25;;;4.00;;
23868;SDS011;12115;47.128;15.422;2022-12-29T07:49:20;7.28;;;4.28;;
23868;SDS011;12115;47.128;15.422;2022-12-29T07:51:47;9.80;;;5.43;;
23868;SDS011;12115;47.128;15.422;2022-12-29T07:54:14;6.88;;;4.00;;
23868;SDS011;12115;47.128;15.422;2022-12-29T07:56:45;7.93;;;4.10;;
23868;SDS011;12115;47.128;15.422;2022-12-29T07:59:12;6.70;;;4.00;;
23868;SDS011;12115;47.128;15.422;2022-12-29T08:01:39;6.32;;;4.15;;
23868;SDS011;12115;47.128;15.422;2022-12-29T08:04:07;11.80;;;4.38;;
23868;SDS011;12115;47.128;15.422;2022-12-29T08:06:35;12.40;;;6.57;;
23868;SDS011;12115;47.128;15.422;2022-12-29T08:09:04;10.02;;;7.35;;
23868;SDS011;12115;47.128;15.422;2022-12-29T08:11:43;11.35;;;6.82;;
23868;SDS011;12115;47.128;15.422;2022-12-29T08:14:11;11.35;;;6.60;;
23868;SDS011;12115;47.128;15.422;2022-12-29T08:16:38;8.38;;;5.63;;
23868;SDS011;12115;47.128;15.422;2022-12-29T08:19:06;9.02;;;6.18;;
23868;SDS011;12115;47.128;15.422;2022-12-29T08:21:33;8.20;;;4.78;;
23868;SDS011;12115;47.128;15.422;2022-12-29T08:24:00;7.47;;;5.10;;
23868;SDS011;12115;47.128;15.422;2022-12-29T08:26:28;6.40;;;4.10;;
23868;SDS011;12115;47.128;15.422;2022-12-29T08:28:55;7.63;;;4.03;;
23868;SDS011;12115;47.128;15.422;2022-12-29T08:31:23;8.95;;;6.05;;
23868;SDS011;12115;47.128;15.422;2022-12-29T08:33:50;9.48;;;5.88;;
23868;SDS011;12115;47.128;15.422;2022-12-29T08:36:18;6.85;;;4.63;;
23868;SDS011;12115;47.128;15.422;2022-12-29T08:38:45;9.52;;;5.50;;
23868;SDS011;12115;47.128;15.422;2022-12-29T08:41:12;12.60;;;7.85;;
23868;SDS011;12115;47.128;15.422;2022-12-29T08:43:40;16.15;;;8.57;;
23868;SDS011;12115;47.128;15.422;2022-12-29T08:46:11;21.23;;;10.55;;
23868;SDS011;12115;47.128;15.422;2022-12-29T08:48:38;21.80;;;10.35;;
23868;SDS011;12115;47.128;15.422;2022-12-29T08:51:06;20.33;;;11.02;;
23868;SDS011;12115;47.128;15.422;2022-12-29T08:53:34;22.20;;;11.85;;
23868;SDS011;12115;47.128;15.422;2022-12-29T08:56:01;20.02;;;9.35;;
23868;SDS011;12115;47.128;15.422;2022-12-29T08:58:39;14.60;;;8.90;;
23868;SDS011;12115;47.128;15.422;2022-12-29T09:01:08;12.70;;;6.97;;
23868;SDS011;12115;47.128;15.422;2022-12-29T09:03:39;11.60;;;6.70;;
23868;SDS011;12115;47.128;15.422;2022-12-29T09:06:27;9.38;;;5.70;;
23868;SDS011;12115;47.128;15.422;2022-12-29T09:08:56;7.95;;;5.55;;
23868;SDS011;12115;47.128;15.422;2022-12-29T09:11:24;9.30;;;5.68;;
23868;SDS011;12115;47.128;15.422;2022-12-29T09:13:52;9.20;;;5.18;;
23868;SDS011;12115;47.128;15.422;2022-12-29T09:16:20;11.70;;;6.25;;
23868;SDS011;12115;47.128;15.422;2022-12-29T09:18:49;11.27;;;7.68;;
23868;SDS011;12115;47.128;15.422;2022-12-29T09:21:17;15.48;;;7.93;;
23868;SDS011;12115;47.128;15.422;2022-12-29T09:23:44;14.13;;;7.68;;
23868;SDS011;12115;47.128;15.422;2022-12-29T09:26:12;13.32;;;6.53;;
23868;SDS011;12115;47.128;15.422;2022-12-29T09:28:44;10.60;;;6.45;;
23868;SDS011;12115;47.128;15.422;2022-12-29T09:31:12;11.23;;;6.95;;
23868;SDS011;12115;47.128;15.422;2022-12-29T09:33:40;9.60;;;6.63;;
23868;SDS011;12115;47.128;15.422;2022-12-29T09:36:08;11.05;;;6.07;;
23868;SDS011;12115;47.128;15.422;2022-12-29T09:38:36;8.80;;;5.40;;
23868;SDS011;12115;47.128;15.422;2022-12-29T09:46:37;7.05;;;5.05;;
23868;SDS011;12115;47.128;15.422;2022-12-29T09:49:21;6.35;;;4.13;;
23868;SDS011;12115;47.128;15.422;2022-12-29T09:52:13;6.90;;;3.92;;
23868;SDS011;12115;47.128;15.422;2022-12-29T10:00:27;5.32;;;3.60;;
23868;SDS011;12115;47.128;15.422;2022-12-29T10:03:13;7.60;;;4.43;;
23868;SDS011;12115;47.128;15.422;2022-12-29T10:08:25;6.95;;;4.10;;
23868;SDS011;12115;47.128;15.422;2022-12-29T10:11:18;7.97;;;5.35;;
23868;SDS011;12115;47.128;15.422;2022-12-29T10:17:24;5.35;;;3.63;;
23868;SDS011;12115;47.128;15.422;2022-12-29T10:25:22;29.80;;;17.42;;
23868;SDS011;12115;47.128;15.422;2022-12-29T10:27:59;6.68;;;4.65;;
23868;SDS011;12115;47.128;15.422;2022-12-29T10:30:32;16.23;;;9.05;;
23868;SDS011;12115;47.128;15.422;2022-12-29T10:33:07;6.30;;;3.95;;
23868;SDS011;12115;47.128;15.422;2022-12-29T10:35:42;6.30;;;4.03;;
23868;SDS011;12115;47.128;15.422;2022-12-29T10:40:53;7.93;;;4.28;;
23868;SDS011;12115;47.128;15.422;2022-12-29T10:43:42;9.63;;;5.22;;
23868;SDS011;12115;47.128;15.422;2022-12-29T10:46:22;6.93;;;3.67;;
23868;SDS011;12115;47.128;15.422;2022-12-29T10:48:59;5.57;;;3.65;;
23868;SDS011;12115;47.128;15.422;2022-12-29T10:51:35;5.28;;;3.30;;
23868;SDS011;12115;47.128;15.422;2022-12-29T10:54:31;6.93;;;3.58;;
23868;SDS011;12115;47.128;15.422;2022-12-29T11:00:17;4.95;;;3.20;;
23868;SDS011;12115;47.128;15.422;2022-12-29T11:08:15;5.53;;;3.03;;
23868;SDS011;12115;47.128;15.422;2022-12-29T11:10:57;3.92;;;3.08;;
23868;SDS011;12115;47.128;15.422;2022-12-29T11:13:31;3.95;;;2.90;;
23868;SDS011;12115;47.128;15.422;2022-12-29T11:16:56;5.63;;;3.55;;
23868;SDS011;12115;47.128;15.422;2022-12-29T11:19:34;5.43;;;2.83;;
23868;SDS011;12115;47.128;15.422;2022-12-29T11:22:13;5.30;;;3.00;;
23868;SDS011;12115;47.128;15.422;2022-12-29T11:24:51;4.10;;;3.00;;
23868;SDS011;12115;47.128;15.422;2022-12-29T11:27:24;3.40;;;2.47;;
23868;SDS011;12115;47.128;15.422;2022-12-29T11:29:53;6.28;;;3.00;;
23868;SDS011;12115;47.128;15.422;2022-12-29T11:32:22;4.53;;;3.00;;
23868;SDS011;12115;47.128;15.422;2022-12-29T11:34:55;6.47;;;3.08;;
23868;SDS011;12115;47.128;15.422;2022-12-29T11:37:33;5.30;;;3.33;;
23868;SDS011;12115;47.128;15.422;2022-12-29T11:40:16;4.55;;;3.08;;
23868;SDS011;12115;47.128;15.422;2022-12-29T11:45:16;5.45;;;2.58;;
23868;SDS011;12115;47.128;15.422;2022-12-29T11:47:47;3.53;;;2.75;;
23868;SDS011;12115;47.128;15.422;2022-12-29T11:50:26;4.95;;;2.70;;
23868;SDS011;12115;47.128;15.422;2022-12-29T11:53:00;5.32;;;2.80;;
23868;SDS011;12115;47.128;15.422;2022-12-29T11:55:34;7.43;;;3.00;;
23868;SDS011;12115;47.128;15.422;2022-12-29T11:58:04;4.80;;;2.65;;
23868;SDS011;12115;47.128;15.422;2022-12-29T12:00:32;3.85;;;2.70;;
23868;SDS011;12115;47.128;15.422;2022-12-29T12:03:13;8.32;;;2.60;;
23868;SDS011;12115;47.128;15.422;2022-12-29T12:06:00;3.30;;;2.20;;
23868;SDS011;12115;47.128;15.422;2022-12-29T12:11:16;6.00;;;2.30;;
23868;SDS011;12115;47.128;15.422;2022-12-29T12:16:20;6.07;;;2.63;;
23868;SDS011;12115;47.128;15.422;2022-12-29T12:18:57;5.95;;;2.85;;
23868;SDS011;12115;47.128;15.422;2022-12-29T12:21:42;4.97;;;2.40;;
23868;SDS011;12115;47.128;15.422;2022-12-29T12:27:13;5.47;;;2.60;;
23868;SDS011;12115;47.128;15.422;2022-12-29T12:30:00;4.45;;;2.33;;
23868;SDS011;12115;47.128;15.422;2022-12-29T12:33:02;4.47;;;2.47;;
23868;SDS011;12115;47.128;15.422;2022-12-29T12:35:45;5.47;;;2.65;;
23868;SDS011;12115;47.128;15.422;2022-12-29T12:44:17;4.95;;;2.10;;
23868;SDS011;12115;47.128;15.422;2022-12-29T12:58:49;4.50;;;2.70;;
23868;SDS011;12115;47.128;15.422;2022-12-29T13:13:12;3.60;;;2.03;;
23868;SDS011;12115;47.128;15.422;2022-12-29T13:18:59;3.88;;;2.10;;
23868;SDS011;12115;47.128;15.422;2022-12-29T13:24:28;4.65;;;2.60;;
23868;SDS011;12115;47.128;15.422;2022-12-29T13:30:08;3.15;;;2.40;;
23868;SDS011;12115;47.128;15.422;2022-12-29T13:41:12;6.15;;;2.90;;
23868;SDS011;12115;47.128;15.422;2022-12-29T13:43:48;5.28;;;2.55;;
23868;SDS011;12115;47.128;15.422;2022-12-29T13:46:23;6.25;;;2.70;;
23868;SDS011;12115;47.128;15.422;2022-12-29T13:51:31;9.20;;;4.10;;
23868;SDS011;12115;47.128;15.422;2022-12-29T13:59:17;5.70;;;3.20;;
23868;SDS011;12115;47.128;15.422;2022-12-29T14:04:14;10.32;;;2.63;;
23868;SDS011;12115;47.128;15.422;2022-12-29T14:07:04;6.18;;;2.83;;
23868;SDS011;12115;47.128;15.422;2022-12-29T14:17:43;6.28;;;2.67;;
23868;SDS011;12115;47.128;15.422;2022-12-29T14:20:18;6.72;;;2.30;;
23868;SDS011;12115;47.128;15.422;2022-12-29T14:22:59;8.38;;;2.42;;
23868;SDS011;12115;47.128;15.422;2022-12-29T14:28:32;6.10;;;2.25;;
23868;SDS011;12115;47.128;15.422;2022-12-29T14:37:01;4.38;;;2.42;;
23868;SDS011;12115;47.128;15.422;2022-12-29T14:39:48;3.03;;;2.17;;
23868;SDS011;12115;47.128;15.422;2022-12-29T14:42:38;5.65;;;2.45;;
23868;SDS011;12115;47.128;15.422;2022-12-29T14:47:55;3.72;;;2.50;;
23868;SDS011;12115;47.128;15.422;2022-12-29T14:50:46;6.00;;;2.20;;
23868;SDS011;12115;47.128;15.422;2022-12-29T14:56:20;3.13;;;2.15;;
23868;SDS011;12115;47.128;15.422;2022-12-29T14:59:16;5.75;;;2.70;;
23868;SDS011;12115;47.128;15.422;2022-12-29T15:01:47;3.20;;;2.42;;
23868;SDS011;12115;47.128;15.422;2022-12-29T15:04:21;4.57;;;2.40;;
23868;SDS011;12115;47.128;15.422;2022-12-29T15:06:53;4.97;;;3.30;;
23868;SDS011;12115;47.128;15.422;2022-12-29T15:12:04;10.25;;;4.40;;
23868;SDS011;12115;47.128;15.422;2022-12-29T15:14:50;12.45;;;5.05;;
23868;SDS011;12115;47.128;15.422;2022-12-29T15:19:55;25.20;;;10.90;;
23868;SDS011;12115;47.128;15.422;2022-12-29T15:22:25;23.88;;;10.30;;
23868;SDS011;12115;47.128;15.422;2022-12-29T15:24:55;22.48;;;9.85;;
23868;SDS011;12115;47.128;15.422;2022-12-29T15:27:24;34.63;;;13.38;;
23868;SDS011;12115;47.128;15.422;2022-12-29T15:30:02;29.90;;;13.30;;
23868;SDS011;12115;47.128;15.422;2022-12-29T15:35:56;50.50;;;19.77;;
23868;SDS011;12115;47.128;15.422;2022-12-29T15:38:34;61.05;;;22.83;;
23868;SDS011;12115;47.128;15.422;2022-12-29T15:41:29;56.72;;;24.20;;
23868;SDS011;12115;47.128;15.422;2022-12-29T15:44:43;36.78;;;15.75;;
23868;SDS011;12115;47.128;15.422;2022-12-29T15:47:35;42.08;;;17.23;;
23868;SDS011;12115;47.128;15.422;2022-12-29T15:50:23;42.65;;;18.88;;
23868;SDS011;12115;47.128;15.422;2022-12-29T15:52:57;31.73;;;14.65;;
23868;SDS011;12115;47.128;15.422;2022-12-29T15:55:52;24.10;;;10.93;;
23868;SDS011;12115;47.128;15.422;2022-12-29T15:58:50;24.17;;;11.65;;
23868;SDS011;12115;47.128;15.422;2022-12-29T16:01:23;20.85;;;9.73;;
23868;SDS011;12115;47.128;15.422;2022-12-29T16:04:15;17.90;;;9.10;;
23868;SDS011;12115;47.128;15.422;2022-12-29T16:07:32;13.40;;;6.97;;
23868;SDS011;12115;47.128;15.422;2022-12-29T16:13:28;21.73;;;8.98;;
23868;SDS011;12115;47.128;15.422;2022-12-29T16:16:17;17.45;;;8.45;;
23868;SDS011;12115;47.128;15.422;2022-12-29T16:22:36;15.27;;;8.35;;
23868;SDS011;12115;47.128;15.422;2022-12-29T16:25:19;17.30;;;8.75;;
23868;SDS011;12115;47.128;15.422;2022-12-29T16:28:18;13.77;;;7.70;;
23868;SDS011;12115;47.128;15.422;2022-12-29T16:31:13;13.70;;;7.53;;
23868;SDS011;12115;47.128;15.422;2022-12-29T16:34:52;12.95;;;6.43;;
23868;SDS011;12115;47.128;15.422;2022-12-29T16:37:32;10.43;;;5.03;;
23868;SDS011;12115;47.128;15.422;2022-12-29T16:40:30;11.15;;;5.47;;
23868;SDS011;12115;47.128;15.422;2022-12-29T16:43:18;10.68;;;6.40;;
23868;SDS011;12115;47.128;15.422;2022-12-29T16:46:38;12.77;;;7.90;;
23868;SDS011;12115;47.128;15.422;2022-12-29T16:49:46;11.93;;;6.37;;
23868;SDS011;12115;47.128;15.422;2022-12-29T16:52:29;9.75;;;5.55;;
23868;SDS011;12115;47.128;15.422;2022-12-29T16:55:14;8.77;;;5.33;;
23868;SDS011;12115;47.128;15.422;2022-12-29T16:57:57;7.88;;;4.68;;
23868;SDS011;12115;47.128;15.422;2022-12-29T17:00:34;10.18;;;4.97;;
23868;SDS011;12115;47.128;15.422;2022-12-29T17:03:14;8.68;;;5.43;;
23868;SDS011;12115;47.128;15.422;2022-12-29T17:05:46;8.95;;;5.05;;
23868;SDS011;12115;47.128;15.422;2022-12-29T17:08:26;9.68;;;5.45;;
23868;SDS011;12115;47.128;15.422;2022-12-29T17:14:48;17.02;;;9.90;;
23868;SDS011;12115;47.128;15.422;2022-12-29T17:20:20;11.60;;;6.60;;
23868;SDS011;12115;47.128;15.422;2022-12-29T17:23:23;7.85;;;5.13;;
23868;SDS011;12115;47.128;15.422;2022-12-29T17:25:58;9.65;;;5.43;;
23868;SDS011;12115;47.128;15.422;2022-12-29T17:28:41;13.98;;;7.00;;
23868;SDS011;12115;47.128;15.422;2022-12-29T17:31:13;12.35;;;5.65;;
23868;SDS011;12115;47.128;15.422;2022-12-29T17:33:57;12.45;;;5.40;;
23868;SDS011;12115;47.128;15.422;2022-12-29T17:36:30;10.27;;;5.20;;
23868;SDS011;12115;47.128;15.422;2022-12-29T17:39:09;7.60;;;4.75;;
23868;SDS011;12115;47.128;15.422;2022-12-29T17:42:06;8.60;;;4.63;;
23868;SDS011;12115;47.128;15.422;2022-12-29T17:44:45;8.93;;;3.83;;
23868;SDS011;12115;47.128;15.422;2022-12-29T17:47:14;6.78;;;4.10;;
23868;SDS011;12115;47.128;15.422;2022-12-29T17:49:49;7.10;;;3.90;;
23868;SDS011;12115;47.128;15.422;2022-12-29T17:52:24;7.85;;;4.13;;
23868;SDS011;12115;47.128;15.422;2022-12-29T17:55:01;6.68;;;4.32;;
23868;SDS011;12115;47.128;15.422;2022-12-29T17:57:36;6.20;;;3.90;;
23868;SDS011;12115;47.128;15.422;2022-12-29T18:00:04;5.97;;;4.38;;
23868;SDS011;12115;47.128;15.422;2022-12-29T18:02:39;5.07;;;3.28;;
23868;SDS011;12115;47.128;15.422;2022-12-29T18:08:19;6.22;;;3.80;;
23868;SDS011;12115;47.128;15.422;2022-12-29T18:10:53;8.30;;;4.00;;
23868;SDS011;12115;47.128;15.422;2022-12-29T18:16:17;8.10;;;4.22;;
23868;SDS011;12115;47.128;15.422;2022-12-29T18:18:57;6.63;;;3.97;;
23868;SDS011;12115;47.128;15.422;2022-12-29T18:21:34;6.85;;;4.20;;
23868;SDS011;12115;47.128;15.422;2022-12-29T18:24:12;6.97;;;4.00;;
23868;SDS011;12115;47.128;15.422;2022-12-29T18:26:44;7.20;;;4.20;;
23868;SDS011;12115;47.128;15.422;2022-12-29T18:29:26;8.90;;;4.20;;
23868;SDS011;12115;47.128;15.422;2022-12-29T18:31:54;7.13;;;4.25;;
23868;SDS011;12115;47.128;15.422;2022-12-29T18:34:26;11.98;;;5.70;;
23868;SDS011;12115;47.128;15.422;2022-12-29T18:37:17;6.70;;;4.90;;
23868;SDS011;12115;47.128;15.422;2022-12-29T18:39:49;11.60;;;4.50;;
23868;SDS011;12115;47.128;15.422;2022-12-29T18:42:20;6.80;;;3.80;;
23868;SDS011;12115;47.128;15.422;2022-12-29T18:44:51;13.02;;;6.38;;
23868;SDS011;12115;47.128;15.422;2022-12-29T18:47:20;9.52;;;5.35;;